Time;durP1;ratioP1;P1;durP2;ratioP2;P2;SDS_P1;SDS_P2;PMS_P1;PMS_P2;Temp;Humidity;BMP_temperature;BMP_pressure;BME280_temperature;BME280_humidity;BME280_pressure;Samples;Min_cycle;Max_cycle;Signal;HPM_P1;HPM_P2
2024/04/08 00:00:10;;;;;;;0.10;0.10;;;;;;;12.42;100.00;101045.50;5074154;28;20070;-51
2024/04/08 00:02:36;;;;;;;0.10;0.10;;;;;;;12.38;100.00;101038.50;5073917;28;20021;-51
2024/04/08 00:05:01;;;;;;;0.10;0.10;;;;;;;12.33;100.00;101026.34;5073345;28;20032;-51
2024/04/08 00:07:26;;;;;;;0.20;0.20;;;;;;;12.29;100.00;101023.66;5073685;28;20040;-51
2024/04/08 00:09:52;;;;;;;0.13;0.13;;;;;;;12.28;100.00;101024.50;5073875;28;20029;-50
2024/04/08 00:12:17;;;;;;;0.20;0.20;;;;;;;12.24;100.00;101028.72;5073211;28;20021;-50
2024/04/08 00:14:42;;;;;;;0.20;0.20;;;;;;;12.25;100.00;101016.66;5073785;28;20392;-50
2024/04/08 00:17:07;;;;;;;0.20;0.20;;;;;;;12.19;100.00;101000.16;5073733;28;20093;-50
2024/04/08 00:19:33;;;;;;;0.15;0.15;;;;;;;12.20;100.00;101019.13;5072833;28;20517;-51
2024/04/08 00:21:58;;;;;;;0.17;0.17;;;;;;;12.21;100.00;101025.16;5073750;28;20032;-51
2024/04/08 00:24:23;;;;;;;0.17;0.17;;;;;;;12.17;100.00;101013.88;5073260;28;20032;-51
2024/04/08 00:26:48;;;;;;;0.20;0.20;;;;;;;12.16;100.00;101006.94;5073133;28;20029;-51
2024/04/08 00:29:14;;;;;;;0.20;0.20;;;;;;;12.10;100.00;101005.09;5073440;28;20138;-50
2024/04/08 00:31:39;;;;;;;0.20;0.20;;;;;;;12.05;100.00;101005.81;5073079;28;20039;-49
2024/04/08 00:34:04;;;;;;;0.10;0.10;;;;;;;12.06;100.00;101010.13;5072974;28;20046;-51
2024/04/08 00:36:30;;;;;;;0.20;0.20;;;;;;;12.06;100.00;100994.63;5073211;28;20024;-51
2024/04/08 00:38:55;;;;;;;0.20;0.20;;;;;;;12.05;100.00;100982.56;5072528;28;20115;-51
2024/04/08 00:41:20;;;;;;;0.10;0.10;;;;;;;12.01;100.00;100982.47;5073220;28;20368;-50
2024/04/08 00:43:46;;;;;;;0.20;0.20;;;;;;;11.99;100.00;100984.16;5073480;28;20020;-51
2024/04/08 00:46:20;;;;;;;0.10;0.10;;;;;;;11.99;100.00;100978.09;5072426;28;20044;-51
2024/04/08 00:48:47;;;;;;;0.20;0.20;;;;;;;11.96;100.00;100983.22;5073416;28;20025;-50
2024/04/08 00:51:13;;;;;;;0.10;0.10;;;;;;;11.95;100.00;100986.59;5072836;28;20571;-48
2024/04/08 00:53:39;;;;;;;0.20;0.20;;;;;;;11.93;100.00;100983.06;5072296;28;20136;-51
2024/04/08 00:56:04;;;;;;;0.20;0.20;;;;;;;11.93;100.00;100983.06;5072808;28;20171;-50
2024/04/08 00:58:31;;;;;;;0.10;0.10;;;;;;;11.92;100.00;100977.03;5073072;28;20036;-51
2024/04/08 01:00:57;;;;;;;0.20;0.20;;;;;;;11.91;100.00;100966.69;5072301;28;20070;-50
2024/04/08 01:03:23;;;;;;;0.20;0.20;;;;;;;11.90;100.00;100959.75;5072614;28;20035;-51
2024/04/08 01:05:50;;;;;;;0.10;0.10;;;;;;;11.91;100.00;100956.34;5072655;28;20024;-51
2024/04/08 01:08:15;;;;;;;0.20;0.20;;;;;;;11.93;100.00;100954.66;5071104;28;20467;-51
2024/04/08 01:10:41;;;;;;;0.10;0.10;;;;;;;11.94;100.00;100964.16;5072711;28;20090;-50
2024/04/08 01:13:06;;;;;;;0.10;0.10;;;;;;;11.93;100.00;100962.41;5072522;28;20028;-51
2024/04/08 01:15:32;;;;;;;0.20;0.20;;;;;;;11.92;100.00;100958.09;5071761;28;20491;-52
2024/04/08 01:17:57;;;;;;;0.20;0.20;;;;;;;11.93;100.00;100965.88;5072711;28;20028;-51
2024/04/08 01:20:22;;;;;;;0.20;0.20;;;;;;;11.93;100.00;100960.72;5072412;28;20395;-51
2024/04/08 01:22:49;;;;;;;0.15;0.15;;;;;;;11.91;100.00;100962.38;5071895;28;20025;-51
2024/04/08 01:25:14;;;;;;;0.20;0.20;;;;;;;11.92;100.00;100958.97;5072404;28;20071;-50
2024/04/08 01:27:39;;;;;;;0.20;0.20;;;;;;;11.91;100.00;100953.78;5072319;28;20024;-51
2024/04/08 01:30:06;;;;;;;0.20;0.20;;;;;;;11.91;100.00;100953.78;5071193;28;20031;-51
2024/04/08 01:32:31;;;;;;;0.20;0.20;;;;;;;11.91;100.00;100956.34;5072211;28;20497;-50
2024/04/08 01:34:57;;;;;;;0.20;0.20;;;;;;;11.90;100.00;100952.00;5072112;28;20029;-49
2024/04/08 01:37:22;;;;;;;0.15;0.15;;;;;;;11.85;100.00;100945.03;5071756;28;20032;-50
2024/04/08 01:39:47;;;;;;;0.20;0.20;;;;;;;11.88;100.00;100951.97;5072651;28;20444;-50
2024/04/08 01:42:13;;;;;;;0.20;0.20;;;;;;;11.89;100.00;100951.16;5071646;28;20424;-50
2024/04/08 01:44:38;;;;;;;0.20;0.20;;;;;;;11.88;100.00;100951.09;5072196;28;20029;-51
2024/04/08 01:47:03;;;;;;;0.20;0.20;;;;;;;11.87;100.00;100957.97;5072292;28;20407;-49
2024/04/08 01:49:29;;;;;;;0.10;0.10;;;;;;;11.86;100.00;100957.09;5071202;28;20047;-51
2024/04/08 01:51:54;;;;;;;0.20;0.20;;;;;;;11.90;100.00;100957.19;5072302;28;20025;-50
2024/04/08 01:54:21;;;;;;;0.20;0.20;;;;;;;11.89;100.00;100946.00;5072207;28;20028;-49
2024/04/08 01:56:47;;;;;;;0.20;0.20;;;;;;;11.93;100.00;100941.75;5071695;28;20057;-51
2024/04/08 01:59:13;;;;;;;0.15;0.15;;;;;;;11.94;100.00;100949.56;5072146;28;20031;-50
2024/04/08 02:01:38;;;;;;;0.15;0.15;;;;;;;11.96;100.00;100947.03;5071997;28;20100;-51
2024/04/08 02:04:04;;;;;;;0.20;0.20;;;;;;;11.96;100.00;100934.13;5071384;28;20048;-49
2024/04/08 02:06:29;;;;;;;0.20;0.20;;;;;;;11.97;100.00;100936.75;5071952;28;20373;-51
2024/04/08 02:08:54;;;;;;;0.20;0.20;;;;;;;11.99;100.00;100939.34;5072267;28;20032;-50
2024/04/08 02:11:19;;;;;;;0.20;0.20;;;;;;;11.99;100.00;100931.63;5071046;28;20025;-51
2024/04/08 02:13:45;;;;;;;0.20;0.20;;;;;;;11.99;100.00;100910.94;5072245;28;20111;-50
2024/04/08 02:16:11;;;;;;;0.20;0.20;;;;;;;12.01;100.00;100904.97;5071907;28;20482;-51
2024/04/08 02:18:36;;;;;;;0.17;0.17;;;;;;;12.01;100.00;100906.69;5072499;28;20032;-51
2024/04/08 02:21:02;;;;;;;0.20;0.20;;;;;;;12.02;100.00;100914.47;5075914;28;20035;-51
2024/04/08 02:23:27;;;;;;;0.20;0.20;;;;;;;12.05;100.00;100915.41;5075885;28;20021;-51
2024/04/08 02:25:52;;;;;;;0.20;0.20;;;;;;;12.05;100.00;100912.81;5075360;28;20169;-50
2024/04/08 02:28:18;;;;;;;0.20;0.20;;;;;;;12.04;100.00;100918.81;5076015;28;20100;-52
2024/04/08 02:30:43;;;;;;;0.17;0.17;;;;;;;12.10;100.00;100924.16;5075574;28;20460;-50
2024/04/08 02:33:08;;;;;;;0.20;0.20;;;;;;;12.08;100.00;100921.50;5074841;28;20028;-51
2024/04/08 02:35:37;;;;;;;0.10;0.10;;;;;;;12.06;100.00;100905.09;5075452;28;20035;-51
2024/04/08 02:38:06;;;;;;;0.10;0.10;;;;;;;12.07;100.00;100901.69;5075764;28;20027;-50
2024/04/08 02:40:32;;;;;;;0.10;0.10;;;;;;;12.08;100.00;100895.66;5074836;28;20039;-51
2024/04/08 02:42:58;;;;;;;0.20;0.20;;;;;;;12.06;100.00;100879.28;5075728;28;20024;-49
2024/04/08 02:45:24;;;;;;;0.17;0.17;;;;;;;12.08;100.00;100876.72;5074564;28;20035;-51
2024/04/08 02:47:49;;;;;;;0.20;0.20;;;;;;;12.11;100.00;100876.78;5075575;28;20021;-51
2024/04/08 02:50:14;;;;;;;0.20;0.20;;;;;;;12.08;100.00;100869.84;5075170;28;20048;-49
2024/04/08 02:52:40;;;;;;;0.17;0.17;;;;;;;12.10;100.00;100878.50;5074354;28;20017;-51
2024/04/08 02:55:05;;;;;;;0.10;0.10;;;;;;;12.12;100.00;100882.00;5075171;28;20116;-51
2024/04/08 02:57:30;;;;;;;0.20;0.20;;;;;;;12.12;100.00;100886.28;5075188;28;20119;-50
2024/04/08 02:59:56;;;;;;;0.20;0.20;;;;;;;12.12;100.00;100892.34;5074402;28;20025;-50
2024/04/08 03:02:21;;;;;;;0.20;0.20;;;;;;;12.13;100.00;100909.56;5074926;28;20103;-50
2024/04/08 03:04:46;;;;;;;0.20;0.20;;;;;;;12.13;100.00;100903.53;5075282;28;20075;-50
2024/04/08 03:07:12;;;;;;;0.20;0.20;;;;;;;12.15;100.00;100913.06;5074551;28;20024;-51
2024/04/08 03:09:37;;;;;;;0.20;0.20;;;;;;;12.15;100.00;100912.22;5074908;28;20103;-51
2024/04/08 03:12:03;;;;;;;0.10;0.10;;;;;;;12.13;100.00;100919.91;5075020;28;20028;-51
2024/04/08 03:14:28;;;;;;;0.20;0.20;;;;;;;12.13;100.00;100926.78;5073924;28;20024;-50
2024/04/08 03:16:53;;;;;;;0.10;0.10;;;;;;;12.13;100.00;100919.03;5075068;28;20071;-49
2024/04/08 03:19:19;;;;;;;0.10;0.10;;;;;;;12.12;100.00;100928.50;5074868;28;20032;-51
2024/04/08 03:21:44;;;;;;;0.10;0.10;;;;;;;12.13;100.00;100925.06;5074274;28;20427;-50
2024/04/08 03:24:10;;;;;;;0.20;0.20;;;;;;;12.12;100.00;100923.34;5074738;28;20048;-51
2024/04/08 03:26:35;;;;;;;0.20;0.20;;;;;;;12.10;100.00;100919.84;5074668;28;20029;-51
2024/04/08 03:29:02;;;;;;;0.20;0.20;;;;;;;12.11;100.00;100910.38;5074026;28;20033;-50
2024/04/08 03:31:28;;;;;;;0.20;0.20;;;;;;;12.14;100.00;100911.31;5073872;28;20074;-51
2024/04/08 03:33:54;;;;;;;0.20;0.20;;;;;;;12.13;100.00;100908.72;5074620;28;20036;-51
2024/04/08 03:36:19;;;;;;;0.10;0.10;;;;;;;12.15;100.00;100892.41;5073837;28;20028;-48
2024/04/08 03:38:45;;;;;;;0.10;0.10;;;;;;;12.16;100.00;100886.41;5074708;28;20032;-51
2024/04/08 03:41:10;;;;;;;0.20;0.20;;;;;;;12.14;100.00;100882.91;5074620;28;20102;-51
2024/04/08 03:43:35;;;;;;;0.13;0.13;;;;;;;12.15;100.00;100876.91;5073537;28;20052;-51
2024/04/08 03:46:01;;;;;;;0.20;0.20;;;;;;;12.12;100.00;100871.69;5074428;28;20154;-51
2024/04/08 03:48:27;;;;;;;0.20;0.20;;;;;;;12.10;100.00;100868.16;5074043;28;20483;-51
2024/04/08 03:50:52;;;;;;;0.10;0.10;;;;;;;12.12;100.00;100861.34;5073506;28;20091;-51
2024/04/08 03:53:18;;;;;;;0.20;0.20;;;;;;;12.13;100.00;100870.81;5074549;28;20020;-50
2024/04/08 03:55:43;;;;;;;0.13;0.13;;;;;;;12.13;100.00;100865.66;5073156;28;20028;-51
2024/04/08 03:58:09;;;;;;;0.20;0.20;;;;;;;12.13;100.00;100857.91;5074185;28;20021;-50
2024/04/08 04:00:34;;;;;;;0.10;0.10;;;;;;;12.13;100.00;100863.06;5073685;28;20464;-51
2024/04/08 04:02:59;;;;;;;0.20;0.20;;;;;;;12.12;100.00;100851.00;5073327;28;20132;-51
2024/04/08 04:05:25;;;;;;;0.20;0.20;;;;;;;12.10;100.00;100837.16;5073734;28;20411;-51
2024/04/08 04:07:50;;;;;;;0.20;0.20;;;;;;;12.09;100.00;100825.09;5074376;28;20055;-51
2024/04/08 04:10:18;;;;;;;0.20;0.20;;;;;;;12.06;100.00;100818.97;5073043;28;20488;-50
2024/04/08 04:12:44;;;;;;;0.13;0.13;;;;;;;12.05;100.00;100807.78;5073911;28;20025;-51
2024/04/08 04:15:11;;;;;;;0.15;0.15;;;;;;;12.00;100.00;100814.53;5073793;28;20074;-51
2024/04/08 04:17:36;;;;;;;0.20;0.20;;;;;;;11.97;100.00;100815.34;5072867;28;20027;-51
2024/04/08 04:20:09;;;;;;;0.17;0.17;;;;;;;11.86;100.00;100822.81;5074223;28;20013;-50
2024/04/08 04:22:35;;;;;;;0.15;0.15;;;;;;;11.85;100.00;100831.41;5073688;28;20025;-50
2024/04/08 04:25:01;;;;;;;0.20;0.20;;;;;;;11.82;100.00;100820.13;5073098;28;20020;-50
2024/04/08 04:27:26;;;;;;;0.20;0.20;;;;;;;11.79;100.00;100825.22;5073371;28;20112;-51
2024/04/08 04:29:51;;;;;;;0.10;0.10;;;;;;;11.76;100.00;100822.53;5073612;28;20052;-49
2024/04/08 04:32:17;;;;;;;0.20;0.20;;;;;;;11.76;100.00;100805.38;5072742;28;20020;-50
2024/04/08 04:34:42;;;;;;;0.20;0.20;;;;;;;11.72;100.00;100813.84;5073174;28;20353;-50
2024/04/08 04:37:08;;;;;;;0.20;0.20;;;;;;;11.67;100.00;100806.00;5073453;28;20063;-51
2024/04/08 04:39:33;;;;;;;0.20;0.20;;;;;;;11.69;100.00;100798.28;5072612;28;20025;-50
2024/04/08 04:41:59;;;;;;;0.20;0.20;;;;;;;11.52;100.00;100816.81;5072459;28;20027;-51
2024/04/08 04:44:24;;;;;;;0.15;0.15;;;;;;;11.53;100.00;100823.72;5073072;28;20021;-51
2024/04/08 04:46:50;;;;;;;0.10;0.10;;;;;;;11.53;100.00;100821.16;5072523;28;20021;-51
2024/04/08 04:49:15;;;;;;;0.20;0.20;;;;;;;11.49;100.00;100821.91;5072997;28;20099;-50
2024/04/08 04:51:42;;;;;;;0.20;0.20;;;;;;;11.44;100.00;100846.72;5072915;28;20488;-50
2024/04/08 04:54:07;;;;;;;0.17;0.17;;;;;;;11.44;100.00;100840.66;5072171;28;20043;-50
2024/04/08 04:56:32;;;;;;;0.20;0.20;;;;;;;11.45;100.00;100848.47;5072859;28;20377;-50
2024/04/08 04:58:58;;;;;;;0.20;0.20;;;;;;;11.46;100.00;100857.94;5072351;28;20111;-51
2024/04/08 05:01:23;;;;;;;0.20;0.20;;;;;;;11.48;100.00;100855.44;5072563;28;20379;-51
2024/04/08 05:03:48;;;;;;;0.10;0.10;;;;;;;11.51;100.00;100861.50;5073212;28;20029;-50
2024/04/08 05:06:14;;;;;;;0.20;0.20;;;;;;;11.51;100.00;100856.34;5071973;28;20062;-51
2024/04/08 05:08:40;;;;;;;0.20;0.20;;;;;;;11.48;100.00;100855.44;5072585;28;20108;-51
2024/04/08 05:11:05;;;;;;;0.20;0.20;;;;;;;11.48;100.00;100851.13;5072707;28;20107;-51
2024/04/08 05:13:30;;;;;;;0.20;0.20;;;;;;;11.48;100.00;100855.44;5071635;28;20039;-51
2024/04/08 05:16:00;;;;;;;0.20;0.20;;;;;;;11.47;100.00;100870.03;5072641;28;20107;-52
2024/04/08 05:18:27;;;;;;;0.20;0.20;;;;;;;11.47;100.00;100880.34;5072442;28;20107;-50
2024/04/08 05:20:52;;;;;;;0.20;0.20;;;;;;;11.50;100.00;100885.59;5071872;28;20078;-50
2024/04/08 05:23:21;;;;;;;0.20;0.20;;;;;;;11.53;100.00;100895.13;5072736;28;20021;-50
2024/04/08 05:25:49;;;;;;;0.20;0.20;;;;;;;11.56;100.00;100895.19;5072720;28;20036;-50
2024/04/08 05:28:15;;;;;;;0.20;0.20;;;;;;;11.59;100.00;100904.75;5071688;28;20029;-50
2024/04/08 05:30:41;;;;;;;0.20;0.20;;;;;;;11.62;100.00;100904.81;5072220;28;20472;-51
2024/04/08 05:33:07;;;;;;;0.20;0.20;;;;;;;11.64;100.00;100911.75;5072532;28;20050;-51
2024/04/08 05:35:32;;;;;;;0.20;0.20;;;;;;;11.66;100.00;100914.41;5071358;28;20460;-50
2024/04/08 05:37:57;;;;;;;0.20;0.20;;;;;;;11.68;100.00;100916.19;5072476;28;20104;-50
2024/04/08 05:40:23;;;;;;;0.17;0.17;;;;;;;11.72;100.00;100906.78;5072215;28;20029;-50
2024/04/08 05:42:48;;;;;;;0.10;0.10;;;;;;;11.72;100.00;100878.38;5071791;28;20073;-50
2024/04/08 05:45:14;;;;;;;0.20;0.20;;;;;;;11.71;100.00;100837.94;5072104;28;20017;-51
2024/04/08 05:47:39;;;;;;;0.20;0.20;;;;;;;11.66;100.00;100818.88;5071979;28;20104;-51
2024/04/08 05:50:04;;;;;;;0.20;0.20;;;;;;;11.69;100.00;100803.47;5071385;28;20041;-50
2024/04/08 05:52:33;;;;;;;0.20;0.20;;;;;;;11.67;100.00;100790.50;5071875;28;20027;-51
2024/04/08 05:54:59;;;;;;;0.10;0.10;;;;;;;11.71;100.00;100812.13;5072598;28;20036;-50
2024/04/08 05:57:25;;;;;;;0.20;0.20;;;;;;;11.70;100.00;100834.47;5071135;28;20036;-50
2024/04/08 05:59:50;;;;;;;0.20;0.20;;;;;;;11.84;100.00;100841.69;5072221;28;20055;-50
2024/04/08 06:02:16;;;;;;;0.10;0.10;;;;;;;11.88;100.00;100847.78;5071441;28;20465;-51
2024/04/08 06:04:41;;;;;;;0.10;0.10;;;;;;;11.92;100.00;100849.63;5071972;28;20032;-48
2024/04/08 06:07:08;;;;;;;0.20;0.20;;;;;;;11.91;100.00;100846.16;5071925;28;20032;-51
2024/04/08 06:09:34;;;;;;;0.20;0.20;;;;;;;11.94;100.00;100856.59;5071180;28;20031;-51
2024/04/08 06:11:59;;;;;;;0.20;0.20;;;;;;;11.98;100.00;100848.09;5072146;28;20025;-51
2024/04/08 06:14:24;;;;;;;0.10;0.10;;;;;;;12.00;100.00;100855.88;5071749;28;20040;-50
2024/04/08 06:16:49;;;;;;;0.20;0.20;;;;;;;12.02;100.00;100860.25;5070953;28;20028;-50
2024/04/08 06:19:15;;;;;;;0.10;0.10;;;;;;;12.05;100.00;100858.59;5070990;28;20470;-50
2024/04/08 06:21:40;;;;;;;0.20;0.20;;;;;;;12.09;100.00;100866.41;5071215;28;20379;-51
2024/04/08 06:24:05;;;;;;;0.20;0.20;;;;;;;12.12;100.00;100863.94;5071029;28;20121;-50
2024/04/08 06:26:31;;;;;;;0.20;0.20;;;;;;;12.18;100.00;100876.09;5071764;28;20106;-51
2024/04/08 06:28:56;;;;;;;0.20;0.20;;;;;;;12.19;100.00;100878.72;5071835;28;20013;-51
2024/04/08 06:31:22;;;;;;;0.10;0.10;;;;;;;12.26;100.00;100884.03;5070796;28;20024;-51
2024/04/08 06:33:48;;;;;;;0.15;0.15;;;;;;;12.30;100.00;100898.75;5072113;28;20031;-50
2024/04/08 06:36:13;;;;;;;0.20;0.20;;;;;;;12.32;100.00;100894.53;5071502;28;20037;-50
2024/04/08 06:38:39;;;;;;;0.20;0.20;;;;;;;12.33;100.00;100896.25;5070761;28;20621;-49
2024/04/08 06:41:04;;;;;;;0.10;0.10;;;;;;;12.35;100.00;100889.41;5071726;28;20025;-51
2024/04/08 06:43:30;;;;;;;0.10;0.10;;;;;;;12.41;100.00;100874.06;5071509;28;20586;-51
2024/04/08 06:45:58;;;;;;;0.10;0.10;;;;;;;12.37;100.00;100882.56;5071101;28;20033;-51
2024/04/08 06:48:24;;;;;;;0.10;0.10;;;;;;;12.40;100.00;100867.13;5071505;28;20024;-50
2024/04/08 06:50:50;;;;;;;0.15;0.15;;;;;;;12.46;100.00;100867.28;5071642;28;20488;-51
2024/04/08 06:53:17;;;;;;;0.20;0.20;;;;;;;12.61;100.00;100868.44;5070714;28;20408;-51
2024/04/08 06:55:42;;;;;;;0.10;0.10;;;;;;;12.70;100.00;100866.03;5071261;28;20048;-48
2024/04/08 06:58:09;;;;;;;0.20;0.20;;;;;;;12.70;100.00;100866.03;5071487;28;20075;-51
2024/04/08 07:00:35;;;;;;;0.20;0.20;;;;;;;12.78;100.00;100871.38;5070848;28;20491;-51
2024/04/08 07:03:00;;;;;;;0.10;0.10;;;;;;;12.81;100.00;100863.69;5071757;28;20056;-51
2024/04/08 07:05:26;;;;;;;0.10;0.10;;;;;;;12.93;100.00;100863.06;5072561;28;20048;-49
2024/04/08 07:07:53;;;;;;;0.20;0.20;;;;;;;12.95;100.00;100859.66;5074445;28;20024;-51
2024/04/08 07:10:18;;;;;;;0.10;0.10;;;;;;;13.18;100.00;100861.81;5075235;28;20021;-51
2024/04/08 07:12:43;;;;;;;0.20;0.20;;;;;;;13.33;100.00;100858.66;5073978;28;20491;-49
2024/04/08 07:15:09;;;;;;;0.10;0.10;;;;;;;13.48;100.00;100860.69;5075089;28;20074;-50
2024/04/08 07:17:35;;;;;;;0.10;0.10;;;;;;;13.61;100.00;100849.69;5074949;28;20030;-50
2024/04/08 07:20:01;;;;;;;0.10;0.10;;;;;;;13.72;100.00;100859.38;5074217;28;20048;-50
2024/04/08 07:22:26;;;;;;;0.10;0.10;;;;;;;13.83;100.00;100860.44;5074867;28;20464;-50
2024/04/08 07:24:51;;;;;;;0.10;0.10;;;;;;;13.91;100.00;100858.81;5074838;28;20024;-48
2024/04/08 07:27:16;;;;;;;0.10;0.10;;;;;;;13.98;100.00;100864.97;5073894;28;20036;-50
2024/04/08 07:29:42;;;;;;;0.10;0.10;;;;;;;14.00;100.00;100869.31;5074773;28;20418;-51
2024/04/08 07:32:08;;;;;;;0.10;0.10;;;;;;;14.03;100.00;100873.69;5074697;28;20036;-49
2024/04/08 07:34:33;;;;;;;0.10;0.10;;;;;;;14.22;100.00;100864.47;5073658;28;20520;-51
2024/04/08 07:36:58;;;;;;;0.20;0.20;;;;;;;14.24;100.00;100860.19;5074732;28;20116;-51
2024/04/08 07:39:24;;;;;;;0.10;0.10;;;;;;;14.43;100.00;100858.72;5074304;28;20429;-50
2024/04/08 07:41:49;;;;;;;0.20;0.20;;;;;;;14.37;100.00;100850.88;5073840;28;20090;-51
2024/04/08 07:44:14;;;;;;;0.10;0.10;;;;;;;14.56;100.00;100838.16;5074963;28;20021;-50
2024/04/08 07:46:40;;;;;;;0.10;0.10;;;;;;;14.63;100.00;100834.78;5074335;28;20446;-51
2024/04/08 07:49:05;;;;;;;0.10;0.10;;;;;;;14.80;100.00;100827.25;5073541;28;20028;-50
2024/04/08 07:51:30;;;;;;;0.10;0.10;;;;;;;15.21;100.00;100825.94;5073952;28;20048;-51
2024/04/08 07:53:56;;;;;;;0.10;0.10;;;;;;;15.15;100.00;100830.22;5074316;28;20031;-51
2024/04/08 07:56:21;;;;;;;0.10;0.10;;;;;;;15.13;100.00;100842.31;5073156;28;20032;-50
2024/04/08 07:58:46;;;;;;;0.05;0.05;;;;;;;15.03;100.00;100832.69;5074450;28;20048;-50
2024/04/08 08:01:12;;;;;;;0.10;0.10;;;;;;;14.98;100.00;100831.78;5074228;28;20029;-51
2024/04/08 08:03:38;;;;;;;0.08;0.08;;;;;;;14.88;100.00;100835.13;5073110;28;20029;-50
2024/04/08 08:06:04;;;;;;;0.10;0.10;;;;;;;14.93;100.00;100841.25;5074020;28;20108;-50
2024/04/08 08:08:29;;;;;;;0.10;0.10;;;;;;;14.91;100.00;100832.53;5073871;28;20451;-47
2024/04/08 08:11:03;;;;;;;0.10;0.10;;;;;;;14.98;100.00;100827.44;5073164;28;20028;-47
2024/04/08 08:13:28;;;;;;;0.10;0.10;;;;;;;14.97;100.00;100810.13;5073922;28;20044;-47
2024/04/08 08:15:55;;;;;;;0.10;0.10;;;;;;;15.15;100.00;100809.44;5073024;28;20020;-47
2024/04/08 08:18:20;;;;;;;0.10;0.10;;;;;;;15.24;100.00;100815.59;5073548;28;20074;-46
2024/04/08 08:20:45;;;;;;;0.10;0.10;;;;;;;15.38;100.00;100803.63;5074023;28;20044;-47
2024/04/08 08:23:11;;;;;;;0.10;0.10;;;;;;;15.34;100.00;100804.47;5073017;28;20083;-47
2024/04/08 08:25:36;;;;;;;0.10;0.10;;;;;;;15.45;100.00;100810.63;5073407;28;20475;-47
2024/04/08 08:28:02;;;;;;;0.10;0.10;;;;;;;15.47;100.00;100803.69;5073552;28;20137;-49
2024/04/08 08:30:28;;;;;;;0.10;0.10;;;;;;;15.41;100.00;100806.22;5072768;28;20096;-47
2024/04/08 08:32:54;;;;;;;0.10;0.10;;;;;;;15.43;100.00;100807.13;5073452;28;20107;-48
2024/04/08 08:35:20;;;;;;;0.07;0.07;;;;;;;15.40;100.00;100807.13;5073133;28;20475;-48
2024/04/08 08:37:45;;;;;;;0.10;0.10;;;;;;;15.36;100.00;100807.06;5072865;28;20543;-49
2024/04/08 08:40:11;;;;;;;0.10;0.10;;;;;;;15.33;100.00;100814.84;5073184;28;20037;-48
2024/04/08 08:42:36;;;;;;;0.10;0.10;;;;;;;15.40;100.00;100820.09;5073329;28;20024;-50
2024/04/08 08:45:03;;;;;;;0.10;0.10;;;;;;;15.45;100.00;100808.03;5072787;28;20471;-50
2024/04/08 08:47:29;;;;;;;0.13;0.13;;;;;;;15.53;100.00;100812.41;5073151;28;20078;-50
2024/04/08 08:49:57;;;;;;;0.10;0.10;;;;;;;15.54;100.00;100812.41;5073118;28;20039;-51
2024/04/08 08:52:24;;;;;;;0.10;0.10;;;;;;;15.84;100.00;100810.06;5072094;28;20033;-51
2024/04/08 08:54:53;;;;;;;0.05;0.05;;;;;;;15.96;100.00;100805.84;5073132;28;20118;-50
2024/04/08 08:57:19;;;;;;;0.10;0.10;;;;;;;16.06;100.00;100804.19;5073170;28;20036;-47
2024/04/08 08:59:47;;;;;;;0.00;0.00;;;;;;;16.01;100.00;100808.47;5072525;28;20037;-48
2024/04/08 09:02:13;;;;;;;0.10;0.10;;;;;;;15.80;100.00;100814.34;5072975;28;20050;-47
2024/04/08 09:04:40;;;;;;;0.10;0.10;;;;;;;15.99;100.00;100817.97;5072796;28;20915;-50
2024/04/08 09:07:05;;;;;;;0.10;0.10;;;;;;;16.24;100.00;100812.94;5072133;28;20067;-50
2024/04/08 09:09:31;;;;;;;0.10;0.10;;;;;;;16.28;100.00;100806.88;5072530;28;20068;-50
2024/04/08 09:11:56;;;;;;;0.10;0.10;;;;;;;16.45;100.00;100807.84;5072974;28;20024;-50
2024/04/08 09:14:22;;;;;;;0.10;0.10;;;;;;;16.68;100.00;100807.09;5071912;28;20027;-48
2024/04/08 09:16:49;;;;;;;0.10;0.10;;;;;;;16.72;100.00;100801.03;5072704;28;20524;-51
2024/04/08 09:19:15;;;;;;;0.10;0.10;;;;;;;17.00;100.00;100798.50;5071955;28;20025;-50
2024/04/08 09:21:40;;;;;;;0.10;0.10;;;;;;;17.29;100.00;100802.94;5072327;28;20036;-50
2024/04/08 09:24:07;;;;;;;0.10;0.10;;;;;;;17.24;100.00;100812.47;5072477;28;20475;-50
2024/04/08 09:26:34;;;;;;;0.10;0.10;;;;;;;17.27;100.00;100802.03;5071726;28;20028;-51
2024/04/08 09:29:00;;;;;;;0.10;0.10;;;;;;;17.49;100.00;100792.50;5072148;28;20017;-50
2024/04/08 09:31:26;;;;;;;0.10;0.10;;;;;;;17.46;100.00;100786.44;5072224;28;20269;-50
2024/04/08 09:33:52;;;;;;;0.00;0.00;;;;;;;17.61;100.00;100775.97;5071788;28;20100;-51
2024/04/08 09:36:18;;;;;;;0.00;0.00;;;;;;;17.51;100.00;100782.09;5072348;28;20111;-50
2024/04/08 09:38:45;;;;;;;0.10;0.10;;;;;;;17.80;100.00;100776.00;5072129;28;20025;-50
2024/04/08 09:41:12;;;;;;;;;;;;;;;17.99;100.00;100782.94;5071846;28;20465;-49
2024/04/08 09:43:39;;;;;;;0.10;0.10;;;;;;;17.84;100.00;100775.09;5072259;28;20049;-50
2024/04/08 09:46:05;;;;;;;0.10;0.10;;;;;;;17.75;100.00;100773.38;5072303;28;20028;-50
2024/04/08 09:48:32;;;;;;;0.10;0.10;;;;;;;17.66;100.00;100769.03;5071317;28;20376;-50
2024/04/08 09:51:00;;;;;;;0.10;0.10;;;;;;;17.96;100.00;100776.84;5072035;28;20063;-50
2024/04/08 09:53:30;;;;;;;0.10;0.10;;;;;;;18.47;100.00;100774.09;5071822;28;20082;-51
2024/04/08 09:56:02;;;;;;;0.00;0.00;;;;;;;18.88;98.34;100770.41;5071633;28;20115;-49
2024/04/08 09:58:32;;;;;;;0.03;0.03;;;;;;;19.47;96.59;100770.88;5071937;28;20024;-48
2024/04/08 10:01:03;;;;;;;0.00;0.00;;;;;;;19.92;94.47;100761.78;5072117;28;20037;-51
2024/04/08 10:03:37;;;;;;;0.00;0.00;;;;;;;20.54;87.35;100761.91;5071117;28;20047;-50
2024/04/08 10:06:03;;;;;;;0.00;0.00;;;;;;;21.12;80.07;100769.84;5072394;28;20024;-51
2024/04/08 10:08:29;;;;;;;0.00;0.00;;;;;;;21.01;73.67;100763.03;5071337;28;20032;-50
2024/04/08 10:10:54;;;;;;;0.00;0.00;;;;;;;20.81;72.26;100759.84;5072265;28;20029;-51
2024/04/08 10:13:19;;;;;;;0.00;0.00;;;;;;;20.84;77.22;100768.53;5071828;28;20021;-49
2024/04/08 10:15:45;;;;;;;0.00;0.00;;;;;;;21.58;71.71;100766.50;5071300;28;20139;-50
2024/04/08 10:18:10;;;;;;;0.00;0.00;;;;;;;22.49;66.76;100772.69;5071644;28;20023;-49
2024/04/08 10:20:40;;;;;;;0.00;0.00;;;;;;;22.41;64.14;100781.59;5071964;28;20483;-49
2024/04/08 10:23:06;;;;;;;0.00;0.00;;;;;;;22.58;62.61;100781.25;5071333;28;20107;-49
2024/04/08 10:25:40;;;;;;;0.00;0.00;;;;;;;22.63;60.51;100775.03;5071795;28;20100;-50
2024/04/08 10:28:10;;;;;;;0.00;0.00;;;;;;;22.41;57.84;100771.09;5071937;28;20028;-49
2024/04/08 10:30:39;;;;;;;0.00;0.00;;;;;;;22.07;59.76;100783.13;5070700;28;20028;-49
2024/04/08 10:33:05;;;;;;;0.00;0.00;;;;;;;21.93;63.98;100775.50;5071885;28;20074;-50
2024/04/08 10:35:31;;;;;;;0.00;0.00;;;;;;;22.09;60.38;100773.47;5071782;28;20039;-50
2024/04/08 10:37:56;;;;;;;0.00;0.00;;;;;;;22.22;60.31;100767.94;5070912;28;20471;-49
2024/04/08 10:40:25;;;;;;;0.00;0.00;;;;;;;23.02;58.72;100768.88;5072693;28;20021;-50
2024/04/08 10:42:51;;;;;;;0.00;0.00;;;;;;;22.52;57.58;100763.88;5075555;28;20071;-51
2024/04/08 10:45:19;;;;;;;0.00;0.00;;;;;;;22.18;60.14;100754.91;5074639;28;20058;-51
2024/04/08 10:47:46;;;;;;;0.00;0.00;;;;;;;21.67;59.42;100753.22;5075682;28;20032;-50
2024/04/08 10:50:12;;;;;;;0.00;0.00;;;;;;;21.46;62.91;100743.97;5075135;28;20072;-50
2024/04/08 10:52:40;;;;;;;0.00;0.00;;;;;;;20.94;65.59;100739.56;5074382;28;20104;-51
2024/04/08 10:55:08;;;;;;;0.00;0.00;;;;;;;20.60;64.84;100733.03;5075234;28;20024;-50
2024/04/08 10:57:33;;;;;;;0.00;0.00;;;;;;;20.58;68.76;100716.50;5074888;28;20027;-49
2024/04/08 10:59:58;;;;;;;0.00;0.00;;;;;;;20.45;69.08;100713.19;5074462;28;20032;-50
2024/04/08 11:02:24;;;;;;;0.00;0.00;;;;;;;20.48;68.89;100710.50;5074934;28;20396;-50
2024/04/08 11:04:50;;;;;;;0.00;0.00;;;;;;;19.97;68.67;100718.13;5074703;28;20025;-51
2024/04/08 11:07:16;;;;;;;0.00;0.00;;;;;;;19.59;73.59;100712.41;5075003;28;20384;-48
2024/04/08 11:09:41;;;;;;;0.00;0.00;;;;;;;19.33;76.08;100713.50;5074377;28;20464;-47
2024/04/08 11:12:06;;;;;;;0.00;0.00;;;;;;;19.23;77.30;100710.09;5073899;28;20082;-50